Time;durP1;ratioP1;P1;durP2;ratioP2;P2;SDS_P1;SDS_P2;PMS_P1;PMS_P2;Temp;Humidity;BMP_temperature;BMP_pressure;BME280_temperature;BME280_humidity;BME280_pressure;Samples;Min_cycle;Max_cycle;Signal;HPM_P1;HPM_P2
2022/01/16 00:01:22;;;;;;;2.80;1.73;;;18.10;42.50;;;;;;5053199;28;20250;-78
2022/01/16 00:04:06;;;;;;;2.37;1.43;;;18.10;42.50;;;;;;5053537;28;20412;-79
2022/01/16 00:06:33;;;;;;;2.63;1.50;;;18.10;42.10;;;;;;5050987;28;20438;-78
2022/01/16 00:08:58;;;;;;;2.70;1.40;;;18.10;42.70;;;;;;5053235;28;20732;-79
2022/01/16 00:11:24;;;;;;;2.97;1.70;;;18.10;42.20;;;;;;5052833;28;20418;-77
2022/01/16 00:13:50;;;;;;;3.30;1.97;;;18.10;43.20;;;;;;5053894;28;20208;-78
2022/01/16 00:16:17;;;;;;;2.03;1.57;;;18.10;42.40;;;;;;5054174;28;20434;-78
2022/01/16 00:18:49;;;;;;;2.80;2.00;;;18.10;42.60;;;;;;5052724;28;20412;-78
2022/01/16 00:21:17;;;;;;;2.60;1.57;;;18.10;42.10;;;;;;5053452;28;20407;-77
2022/01/16 00:23:44;;;;;;;3.13;1.40;;;18.10;42.80;;;;;;5052543;28;20412;-78
2022/01/16 00:26:09;;;;;;;2.00;1.30;;;18.10;42.90;;;;;;5052592;28;20470;-78
2022/01/16 00:28:35;;;;;;;2.33;1.77;;;18.10;42.60;;;;;;5053985;28;20403;-78
2022/01/16 00:31:01;;;;;;;2.00;1.50;;;18.10;42.70;;;;;;5053425;28;20252;-78
2022/01/16 00:33:26;;;;;;;3.30;1.70;;;18.10;42.60;;;;;;5053860;28;20615;-78
2022/01/16 00:35:52;;;;;;;2.50;1.77;;;18.10;41.80;;;;;;5052537;28;20219;-78
2022/01/16 00:38:18;;;;;;;4.73;2.03;;;18.10;42.40;;;;;;5052233;28;20195;-78
2022/01/16 00:40:43;;;;;;;3.20;1.77;;;18.10;42.20;;;;;;5053415;28;20200;-78
2022/01/16 00:43:09;;;;;;;2.77;1.60;;;18.10;42.60;;;;;;5052608;28;20180;-78
2022/01/16 00:45:35;;;;;;;2.37;1.50;;;18.10;42.50;;;;;;5053032;28;20169;-79
2022/01/16 00:48:02;;;;;;;4.23;2.20;;;18.10;42.60;;;;;;5051547;28;20706;-79
2022/01/16 00:50:29;;;;;;;4.07;2.00;;;18.10;42.50;;;;;;5052918;28;20433;-79
2022/01/16 00:52:54;;;;;;;5.80;1.80;;;18.10;42.50;;;;;;5052258;28;20459;-79
2022/01/16 00:55:20;;;;;;;3.37;1.90;;;18.10;42.10;;;;;;5052440;28;20438;-78
2022/01/16 00:57:46;;;;;;;3.60;2.23;;;18.10;43.60;;;;;;5052511;28;20553;-78
2022/01/16 01:00:12;;;;;;;3.23;2.40;;;18.10;42.50;;;;;;5052461;28;20185;-79
2022/01/16 01:02:37;;;;;;;2.50;1.63;;;18.10;42.70;;;;;;5052435;28;20181;-78
2022/01/16 01:05:03;;;;;;;3.90;2.30;;;18.10;43.10;;;;;;5052712;28;20482;-78
2022/01/16 01:07:29;;;;;;;3.20;1.97;;;18.10;42.60;;;;;;5052451;28;20254;-79
2022/01/16 01:09:54;;;;;;;3.17;1.80;;;18.10;42.10;;;;;;5051178;28;20213;-79
2022/01/16 01:12:28;;;;;;;2.57;1.63;;;18.10;43.30;;;;;;5038507;28;20251;-78
2022/01/16 01:15:08;;;;;;;2.90;1.60;;;18.10;42.50;;;;;;5031699;28;20647;-78
2022/01/16 01:17:42;;;;;;;2.67;1.70;;;18.10;41.70;;;;;;5031340;28;20927;-79
2022/01/16 01:20:09;;;;;;;2.77;1.70;;;18.10;42.60;;;;;;5030406;28;20427;-78
2022/01/16 01:22:35;;;;;;;2.83;2.07;;;18.10;41.60;;;;;;5031707;28;20412;-79
2022/01/16 01:25:00;;;;;;;2.97;1.90;;;18.10;41.40;;;;;;5031904;28;20949;-79
2022/01/16 01:27:30;;;;;;;3.20;1.90;;;18.20;41.90;;;;;;5031731;28;20197;-79
2022/01/16 01:30:02;;;;;;;2.90;2.10;;;18.10;41.70;;;;;;5031769;28;20181;-79
2022/01/16 01:32:27;;;;;;;3.63;2.03;;;18.10;41.80;;;;;;5030281;28;21034;-79
2022/01/16 01:34:53;;;;;;;3.20;1.87;;;18.10;41.90;;;;;;5031740;28;20440;-79
2022/01/16 01:37:18;;;;;;;3.27;1.90;;;18.10;41.40;;;;;;5027835;28;20227;-79
2022/01/16 01:39:44;;;;;;;2.67;1.97;;;18.10;42.20;;;;;;5031387;28;20177;-79
2022/01/16 01:42:12;;;;;;;3.97;2.17;;;18.10;42.20;;;;;;5030388;28;20180;-79
2022/01/16 01:52:55;;;;;;;2.90;1.80;;;18.20;41.80;;;;;;5031750;28;20463;-79
2022/01/16 01:55:21;;;;;;;3.80;1.70;;;18.20;41.80;;;;;;5031451;28;20432;-78
2022/01/16 01:57:47;;;;;;;4.70;2.20;;;18.20;41.50;;;;;;5027478;28;20475;-79
2022/01/16 02:00:17;;;;;;;3.87;2.03;;;18.20;41.60;;;;;;5029787;28;20932;-78
2022/01/16 02:03:13;;;;;;;2.57;1.90;;;18.10;41.70;;;;;;5031082;28;20183;-79
2022/01/16 02:05:41;;;;;;;3.83;2.20;;;18.10;42.30;;;;;;5025338;28;20432;-78
2022/01/16 02:08:07;;;;;;;3.30;2.13;;;18.10;41.40;;;;;;5028403;28;20440;-79
2022/01/16 02:10:36;;;;;;;2.97;1.97;;;18.10;41.00;;;;;;5030674;28;20431;-79
2022/01/16 02:13:05;;;;;;;3.33;1.90;;;18.10;41.00;;;;;;5018202;28;20778;-79
2022/01/16 02:27:55;;;;;;;3.10;2.07;;;18.00;41.30;;;;;;5029841;28;20437;-78
2022/01/16 02:32:40;;;;;;;2.63;1.80;;;18.10;41.80;;;;;;5029592;28;20420;-79
2022/01/16 02:35:06;;;;;;;3.13;1.73;;;18.10;41.30;;;;;;5031546;28;20828;-78
2022/01/16 02:37:32;;;;;;;2.43;1.30;;;18.10;42.10;;;;;;5029643;28;20432;-79
2022/01/16 02:40:05;;;;;;;2.90;2.03;;;18.10;41.00;;;;;;5030591;28;20473;-79
2022/01/16 02:42:36;;;;;;;1.80;1.20;;;18.10;41.70;;;;;;5031202;28;20956;-78
2022/01/16 02:45:04;;;;;;;2.60;1.70;;;18.10;41.80;;;;;;5031347;28;20436;-78
2022/01/16 02:47:30;;;;;;;3.03;2.00;;;18.10;41.20;;;;;;5031207;28;20575;-78
2022/01/16 02:49:59;;;;;;;3.87;2.00;;;18.10;41.80;;;;;;5031136;28;20991;-79
2022/01/16 02:52:24;;;;;;;2.63;1.83;;;18.10;42.00;;;;;;5030559;28;20181;-78
2022/01/16 02:54:54;;;;;;;2.80;1.60;;;18.10;41.90;;;;;;5030679;28;20455;-78
2022/01/16 02:57:21;;;;;;;2.30;1.67;;;18.10;42.00;;;;;;5030230;28;20230;-79
2022/01/16 02:59:52;;;;;;;3.40;2.03;;;18.10;41.30;;;;;;5030662;28;20471;-78
2022/01/16 03:02:20;;;;;;;3.57;2.10;;;18.10;41.50;;;;;;5029692;28;20432;-78
2022/01/16 03:04:46;;;;;;;3.40;2.10;;;18.10;41.70;;;;;;5030797;28;20409;-78
2022/01/16 03:07:12;;;;;;;3.40;2.13;;;18.10;41.70;;;;;;5030255;28;20947;-78
2022/01/16 03:12:15;;;;;;;2.43;1.60;;;18.10;42.10;;;;;;5030054;28;20451;-79
2022/01/16 03:14:41;;;;;;;2.97;2.10;;;18.10;41.50;;;;;;5029140;28;20932;-79
2022/01/16 03:17:09;;;;;;;2.40;1.50;;;18.10;41.70;;;;;;5030226;28;20213;-79
2022/01/16 03:22:19;;;;;;;2.77;2.07;;;18.10;41.40;;;;;;5031151;28;20427;-79
2022/01/16 03:24:46;;;;;;;3.57;2.10;;;18.10;41.30;;;;;;5031080;28;20838;-79
2022/01/16 03:27:17;;;;;;;2.90;1.80;;;18.00;41.20;;;;;;5029251;28;20209;-79
2022/01/16 03:29:46;;;;;;;1.60;1.20;;;18.00;42.00;;;;;;5031562;28;20459;-79
2022/01/16 03:32:14;;;;;;;3.00;1.90;;;18.10;40.90;;;;;;5033004;28;20519;-79
2022/01/16 03:34:40;;;;;;;2.10;1.47;;;18.10;42.30;;;;;;5029972;28;20449;-79
2022/01/16 03:37:07;;;;;;;3.57;2.07;;;18.00;41.90;;;;;;5028986;28;20484;-79
2022/01/16 03:39:33;;;;;;;2.83;1.63;;;18.10;41.60;;;;;;5030671;28;20186;-79
2022/01/16 03:42:00;;;;;;;2.90;1.73;;;18.10;41.60;;;;;;5031707;28;20439;-79
2022/01/16 03:44:27;;;;;;;2.13;1.50;;;18.00;41.20;;;;;;5035318;28;20166;-80
2022/01/16 03:46:53;;;;;;;2.87;1.73;;;18.00;41.80;;;;;;5033946;28;20463;-79
2022/01/16 03:49:23;;;;;;;2.83;1.53;;;18.10;42.00;;;;;;5034156;28;20428;-79
2022/01/16 03:51:50;;;;;;;2.67;1.83;;;18.10;41.80;;;;;;5034316;28;20237;-78
2022/01/16 03:54:19;;;;;;;3.00;1.93;;;18.10;41.60;;;;;;5034670;28;20456;-78
2022/01/16 03:56:45;;;;;;;3.10;1.73;;;18.10;41.50;;;;;;5033456;28;20425;-78
2022/01/16 03:59:11;;;;;;;2.73;1.70;;;18.10;41.60;;;;;;5033478;28;20405;-78
2022/01/16 04:01:37;;;;;;;2.77;2.13;;;18.10;41.70;;;;;;5033008;28;20177;-79
2022/01/16 04:04:04;;;;;;;2.93;1.80;;;18.10;41.90;;;;;;5031834;28;20436;-79
2022/01/16 04:06:30;;;;;;;3.73;1.70;;;18.10;41.60;;;;;;5033315;28;20448;-79
2022/01/16 04:08:56;;;;;;;3.03;2.03;;;18.10;41.70;;;;;;5033024;28;20428;-79
2022/01/16 04:11:23;;;;;;;2.60;1.70;;;18.10;41.50;;;;;;5031714;28;20780;-79
2022/01/16 04:13:53;;;;;;;3.03;1.50;;;18.00;41.90;;;;;;5032559;28;20463;-78
2022/01/16 04:16:22;;;;;;;2.63;1.73;;;18.10;42.00;;;;;;5031848;28;20959;-79
2022/01/16 04:18:50;;;;;;;3.07;2.27;;;18.00;41.70;;;;;;5031657;28;20420;-78
2022/01/16 04:21:21;;;;;;;2.40;1.60;;;18.10;42.30;;;;;;5030617;28;20515;-78
2022/01/16 04:23:47;;;;;;;2.60;1.73;;;18.00;41.50;;;;;;5028979;28;20483;-79
2022/01/16 04:26:15;;;;;;;2.50;1.57;;;18.00;41.80;;;;;;5033163;28;20469;-79
2022/01/16 04:28:41;;;;;;;3.20;2.00;;;18.00;41.50;;;;;;5031862;28;20974;-80
2022/01/16 04:31:07;;;;;;;3.33;2.13;;;18.00;41.90;;;;;;5031680;28;20516;-79
2022/01/16 04:33:33;;;;;;;3.30;2.03;;;18.00;42.00;;;;;;5033240;28;20538;-79
2022/01/16 04:35:59;;;;;;;2.73;1.60;;;18.00;41.90;;;;;;5031822;28;20831;-79
2022/01/16 04:38:25;;;;;;;4.20;1.97;;;18.00;41.50;;;;;;5033346;28;20533;-79
2022/01/16 04:43:52;;;;;;;2.80;1.80;;;18.00;41.60;;;;;;5033183;28;20760;-78
2022/01/16 04:46:21;;;;;;;3.30;1.80;;;18.00;42.30;;;;;;5032812;28;20976;-78
2022/01/16 04:48:47;;;;;;;3.77;2.23;;;18.00;42.00;;;;;;5032711;28;20521;-79
2022/01/16 04:51:13;;;;;;;4.53;1.90;;;18.00;42.40;;;;;;5031130;28;20416;-79
2022/01/16 04:53:41;;;;;;;2.47;1.63;;;18.00;41.60;;;;;;5031929;28;20502;-77
2022/01/16 04:56:07;;;;;;;3.30;2.10;;;18.00;41.40;;;;;;5033768;28;20511;-78
2022/01/16 04:58:34;;;;;;;2.17;1.60;;;17.90;42.60;;;;;;5033163;28;20409;-79
2022/01/16 05:01:00;;;;;;;2.77;1.40;;;18.00;42.10;;;;;;5031014;28;20417;-80
2022/01/16 05:03:28;;;;;;;4.43;2.13;;;18.00;42.00;;;;;;5032915;28;20510;-80
2022/01/16 05:05:54;;;;;;;3.27;2.07;;;18.00;41.20;;;;;;5032566;28;20440;-79
2022/01/16 05:08:19;;;;;;;2.47;1.70;;;18.00;42.10;;;;;;5030629;28;20417;-79
2022/01/16 05:10:45;;;;;;;3.07;1.83;;;18.00;41.60;;;;;;5032024;28;20932;-79
2022/01/16 05:18:36;;;;;;;3.20;1.67;;;18.00;41.70;;;;;;5031212;28;20420;-80
2022/01/16 05:21:02;;;;;;;2.83;1.63;;;17.90;41.60;;;;;;5030132;28;20840;-80
2022/01/16 05:23:28;;;;;;;2.20;1.70;;;18.00;42.00;;;;;;5031698;28;20920;-79
2022/01/16 05:25:54;;;;;;;3.20;1.90;;;18.00;41.80;;;;;;5031417;28;20509;-80
2022/01/16 05:28:20;;;;;;;3.50;1.80;;;18.00;42.40;;;;;;5029983;28;20646;-79
2022/01/16 05:30:46;;;;;;;2.23;1.50;;;18.10;42.30;;;;;;5031017;28;20440;-79
2022/01/16 05:33:12;;;;;;;2.60;1.67;;;18.00;42.30;;;;;;5031531;28;20468;-79
2022/01/16 05:35:38;;;;;;;2.30;1.50;;;17.90;42.10;;;;;;5031373;28;20197;-80
2022/01/16 05:38:03;;;;;;;4.50;2.30;;;18.00;41.70;;;;;;5031650;28;20912;-79
2022/01/16 05:40:29;;;;;;;3.70;1.77;;;18.00;41.80;;;;;;5031838;28;20549;-79
2022/01/16 05:42:55;;;;;;;2.70;1.40;;;18.00;41.70;;;;;;5031052;28;20205;-79
2022/01/16 05:45:21;;;;;;;2.63;1.70;;;18.00;42.40;;;;;;5029625;28;20189;-80
2022/01/16 05:47:47;;;;;;;2.97;2.00;;;17.90;42.00;;;;;;5030961;28;20452;-81
2022/01/16 05:50:13;;;;;;;2.33;1.60;;;18.00;42.30;;;;;;5030990;28;20207;-77
2022/01/16 05:52:39;;;;;;;2.57;1.73;;;18.00;42.30;;;;;;5031008;28;20698;-79
2022/01/16 05:55:06;;;;;;;2.97;2.10;;;18.00;41.90;;;;;;5030876;28;20471;-79
2022/01/16 05:57:32;;;;;;;2.90;2.10;;;18.00;42.50;;;;;;5031228;28;21025;-79
2022/01/16 05:59:58;;;;;;;3.50;2.10;;;18.00;42.10;;;;;;5031351;28;20462;-80
2022/01/16 06:02:25;;;;;;;3.73;2.20;;;18.00;41.70;;;;;;5029681;28;20416;-81
2022/01/16 06:04:51;;;;;;;3.87;1.87;;;17.90;42.10;;;;;;5028888;28;20408;-81
2022/01/16 06:07:16;;;;;;;3.60;2.17;;;18.00;42.50;;;;;;5029920;28;20867;-79
2022/01/16 06:09:42;;;;;;;4.20;2.70;;;18.00;41.80;;;;;;5031452;28;20244;-80
2022/01/16 06:12:08;;;;;;;2.80;2.13;;;18.00;41.60;;;;;;5031350;28;20590;-81
2022/01/16 06:14:33;;;;;;;5.07;2.80;;;18.00;41.80;;;;;;5030735;28;20224;-79
2022/01/16 06:16:59;;;;;;;3.80;2.23;;;18.00;41.50;;;;;;5030527;28;20936;-79
2022/01/16 06:19:25;;;;;;;3.03;1.90;;;18.00;42.50;;;;;;5029797;28;20166;-80
2022/01/16 06:21:50;;;;;;;3.40;2.20;;;17.90;41.80;;;;;;5030508;28;20265;-79
2022/01/16 06:24:16;;;;;;;3.67;2.27;;;18.00;41.80;;;;;;5030930;28;20178;-80
2022/01/16 06:26:42;;;;;;;7.00;1.67;;;18.00;41.90;;;;;;5032418;28;20186;-78
2022/01/16 06:29:08;;;;;;;4.40;2.60;;;18.00;42.30;;;;;;5031860;28;20269;-79
2022/01/16 06:31:34;;;;;;;3.30;2.03;;;18.00;44.10;;;;;;5023066;28;20512;-78
2022/01/16 06:34:01;;;;;;;4.43;2.23;;;18.00;43.00;;;;;;5028968;28;20480;-78
2022/01/16 06:36:28;;;;;;;2.50;2.00;;;18.00;41.20;;;;;;5030499;28;20186;-79
2022/01/16 06:38:55;;;;;;;3.27;2.10;;;18.00;41.00;;;;;;5030917;28;20503;-79
2022/01/16 06:41:20;;;;;;;2.57;1.93;;;18.00;41.00;;;;;;5022893;28;20424;-78
2022/01/16 06:43:46;;;;;;;4.00;2.27;;;18.00;41.00;;;;;;5029558;28;20424;-79
2022/01/16 06:46:12;;;;;;;4.87;2.27;;;18.00;43.10;;;;;;5030621;28;20215;-79
2022/01/16 06:48:40;;;;;;;4.23;2.30;;;18.00;43.00;;;;;;5031386;28;20645;-79
2022/01/16 06:51:06;;;;;;;5.23;3.03;;;;;;;;;;5030339;28;20580;-81
2022/01/16 06:53:32;;;;;;;4.50;2.50;;;;;;;;;;5029647;28;20823;-79
2022/01/16 06:55:58;;;;;;;4.10;2.17;;;;;;;;;;5030543;28;20943;-78
2022/01/16 06:58:24;;;;;;;2.93;2.13;;;;;;;;;;5030957;28;20945;-80
2022/01/16 07:00:51;;;;;;;3.23;2.17;;;;;;;;;;5029478;28;20412;-80
2022/01/16 07:03:17;;;;;;;3.93;2.10;;;;;;;;;;5029085;28;20872;-80
2022/01/16 07:05:44;;;;;;;3.00;2.00;;;;;;;;;;5031111;28;20411;-79
2022/01/16 07:08:10;;;;;;;2.97;2.37;;;;;;;;;;5030804;28;20424;-79
2022/01/16 07:10:36;;;;;;;3.10;1.67;;;;;;;;;;5030483;28;20420;-80
2022/01/16 07:13:03;;;;;;;6.67;1.90;;;;;;;;;;5029413;28;20824;-79
2022/01/16 07:15:29;;;;;;;3.07;1.97;;;18.00;43.00;;;;;;5030494;28;20943;-80
2022/01/16 07:17:54;;;;;;;3.40;2.27;;;18.00;43.80;;;;;;5032111;28;20445;-80
2022/01/16 07:20:20;;;;;;;3.13;2.00;;;18.00;43.70;;;;;;5034335;28;20184;-79
2022/01/16 07:22:46;;;;;;;4.37;2.27;;;18.10;43.20;;;;;;5033715;28;20241;-81
2022/01/16 07:25:13;;;;;;;2.93;1.73;;;18.00;42.60;;;;;;5034215;28;20521;-80
2022/01/16 07:27:39;;;;;;;3.70;2.20;;;18.10;43.30;;;;;;5032440;28;20201;-76
2022/01/16 07:30:07;;;;;;;3.80;2.40;;;18.00;42.50;;;;;;5035018;28;20412;-79
2022/01/16 07:32:33;;;;;;;3.23;1.90;;;18.00;41.80;;;;;;5034120;28;20519;-79
2022/01/16 07:34:59;;;;;;;2.67;1.90;;;18.00;42.40;;;;;;5032333;28;20524;-78
2022/01/16 07:37:25;;;;;;;10.20;2.00;;;18.00;41.90;;;;;;5031862;28;20750;-78
2022/01/16 07:39:51;;;;;;;2.40;1.63;;;18.00;42.30;;;;;;5033020;28;20174;-80
2022/01/16 07:42:16;;;;;;;3.97;1.90;;;18.10;43.30;;;;;;5033458;28;20428;-80
2022/01/16 07:44:42;;;;;;;3.73;2.10;;;18.00;43.60;;;;;;5032083;28;20709;-79
2022/01/16 07:47:08;;;;;;;4.20;1.47;;;18.00;41.60;;;;;;5033348;28;20723;-79
2022/01/16 07:49:33;;;;;;;3.30;1.63;;;18.00;42.30;;;;;;5033581;28;20209;-79
2022/01/16 07:51:59;;;;;;;2.67;1.57;;;18.00;42.20;;;;;;5033915;28;20197;-79
2022/01/16 07:54:25;;;;;;;2.57;1.87;;;18.10;42.30;;;;;;5034470;28;20545;-80
2022/01/16 07:56:50;;;;;;;3.70;2.23;;;18.00;43.20;;;;;;5033924;28;20189;-81
2022/01/16 07:59:16;;;;;;;3.47;2.40;;;18.00;42.80;;;;;;5033333;28;20166;-80
2022/01/16 08:01:42;;;;;;;4.27;2.33;;;18.00;42.50;;;;;;5033348;28;20174;-80
2022/01/16 08:04:08;;;;;;;13.00;2.43;;;18.10;42.80;;;;;;5033044;28;20169;-80
2022/01/16 08:06:34;;;;;;;2.77;1.80;;;18.10;42.10;;;;;;5032690;28;20429;-78
2022/01/16 08:08:59;;;;;;;5.63;3.57;;;18.10;42.10;;;;;;5032011;28;20548;-79
2022/01/16 08:11:25;;;;;;;7.40;3.80;;;18.10;42.70;;;;;;5032159;28;20181;-77
2022/01/16 08:13:50;;;;;;;6.40;2.73;;;18.10;43.80;;;;;;5033113;28;20227;-77
2022/01/16 08:16:16;;;;;;;5.40;2.50;;;18.20;44.00;;;;;;5031775;28;20198;-78
2022/01/16 08:18:41;;;;;;;8.93;2.80;;;18.10;42.50;;;;;;5033208;28;20223;-80
2022/01/16 08:21:07;;;;;;;4.03;1.90;;;18.20;42.30;;;;;;5032853;28;20170;-78
2022/01/16 08:23:33;;;;;;;4.83;2.60;;;18.10;41.50;;;;;;5034316;28;20181;-78
2022/01/16 08:25:59;;;;;;;3.70;2.30;;;18.10;42.30;;;;;;5033704;28;20202;-79
2022/01/16 08:28:25;;;;;;;4.50;2.50;;;18.10;42.60;;;;;;5032843;28;20174;-79
2022/01/16 08:30:51;;;;;;;8.90;2.43;;;18.20;42.90;;;;;;5033772;28;20764;-79
2022/01/16 08:33:17;;;;;;;6.03;3.10;;;18.20;43.20;;;;;;5033326;28;20228;-78
2022/01/16 08:35:43;;;;;;;4.93;2.63;;;18.20;42.40;;;;;;5032620;28;20408;-78
2022/01/16 08:38:08;;;;;;;3.10;1.80;;;18.20;42.70;;;;;;5034112;28;20429;-78
2022/01/16 08:40:34;;;;;;;7.40;2.33;;;18.20;42.50;;;;;;5033385;28;20412;-78
2022/01/16 08:43:07;;;;;;;2.73;1.50;;;18.20;42.90;;;;;;5033044;28;20182;-77
2022/01/16 08:45:33;;;;;;;3.10;2.00;;;18.20;41.80;;;;;;5033192;28;20199;-77
2022/01/16 08:47:58;;;;;;;4.53;2.53;;;18.20;42.20;;;;;;5032934;28;20882;-78
2022/01/16 08:50:24;;;;;;;12.20;3.03;;;18.20;42.50;;;;;;5032137;28;20708;-76
2022/01/16 08:52:50;;;;;;;15.67;3.97;;;18.20;42.60;;;;;;5031403;28;20228;-76
2022/01/16 08:55:16;;;;;;;4.30;2.80;;;18.30;42.80;;;;;;5033131;28;20170;-76
2022/01/16 08:57:42;;;;;;;4.77;2.03;;;18.30;43.50;;;;;;5032709;28;20217;-77
2022/01/16 09:00:09;;;;;;;5.73;3.10;;;18.40;42.90;;;;;;5032443;28;20425;-77
2022/01/16 09:02:34;;;;;;;8.40;3.87;;;18.40;43.10;;;;;;5032312;28;20200;-78
2022/01/16 09:05:00;;;;;;;18.13;3.93;;;18.40;43.10;;;;;;5032813;28;20404;-77
2022/01/16 09:07:26;;;;;;;4.80;2.73;;;18.40;42.70;;;;;;5032358;28;20239;-77
2022/01/16 09:09:51;;;;;;;6.43;3.70;;;18.40;43.20;;;;;;5032489;28;20166;-77
2022/01/16 09:12:17;;;;;;;8.17;2.77;;;18.40;41.70;;;;;;5032185;28;20170;-77
2022/01/16 09:14:42;;;;;;;5.10;3.20;;;18.40;42.90;;;;;;5032219;28;20641;-78
2022/01/16 09:17:08;;;;;;;5.30;2.70;;;18.40;42.80;;;;;;5032714;28;20181;-78
2022/01/16 09:19:34;;;;;;;3.50;2.20;;;18.40;42.00;;;;;;5032381;28;20621;-79
2022/01/16 09:21:59;;;;;;;4.50;2.20;;;18.40;42.20;;;;;;5031981;28;20185;-77
2022/01/16 09:24:25;;;;;;;3.57;2.30;;;18.40;41.80;;;;;;5032094;28;20174;-76
2022/01/16 09:26:54;;;;;;;4.13;2.13;;;18.40;42.20;;;;;;5032207;28;20193;-77
2022/01/16 09:29:20;;;;;;;7.23;2.60;;;18.40;43.40;;;;;;5031854;28;20232;-77
2022/01/16 09:31:46;;;;;;;10.57;3.10;;;18.40;43.20;;;;;;5031772;28;20437;-77
2022/01/16 09:34:11;;;;;;;4.50;2.37;;;18.40;41.90;;;;;;5030309;28;21077;-77
2022/01/16 09:36:38;;;;;;;2.80;1.80;;;18.40;42.00;;;;;;5030998;28;20632;-77
2022/01/16 09:39:03;;;;;;;3.60;2.47;;;18.40;41.80;;;;;;5029803;28;20237;-76
2022/01/16 09:41:29;;;;;;;3.50;1.70;;;18.40;42.10;;;;;;5030048;28;20910;-76
2022/01/16 09:43:55;;;;;;;6.80;2.90;;;18.40;42.20;;;;;;5029084;28;20616;-76
2022/01/16 09:46:21;;;;;;;4.50;2.20;;;18.30;41.40;;;;;;5030336;28;20204;-77
2022/01/16 09:48:46;;;;;;;4.53;2.80;;;18.40;41.40;;;;;;5030353;28;20174;-77
2022/01/16 09:51:12;;;;;;;4.00;2.50;;;18.40;42.00;;;;;;5031012;28;20177;-79
2022/01/16 09:53:41;;;;;;;3.90;2.60;;;18.50;41.70;;;;;;5032381;28;20209;-79
2022/01/16 09:56:07;;;;;;;6.13;2.43;;;18.50;41.30;;;;;;5034911;28;20189;-80
2022/01/16 09:58:34;;;;;;;8.10;4.10;;;18.50;42.00;;;;;;5034738;28;20412;-79
2022/01/16 10:01:00;;;;;;;6.03;3.60;;;18.50;42.10;;;;;;5033933;28;20256;-79
2022/01/16 10:03:43;;;;;;;4.13;3.17;;;18.60;41.70;;;;;;5034725;28;20452;-80
2022/01/16 10:06:19;;;;;;;5.60;2.20;;;18.60;41.80;;;;;;5034261;28;20432;-79
2022/01/16 10:08:46;;;;;;;5.47;2.50;;;18.60;41.00;;;;;;5035566;28;20507;-79
2022/01/16 10:11:26;;;;;;;9.53;5.53;;;18.70;41.30;;;;;;5030973;28;20516;-77
2022/01/16 10:14:00;;;;;;;8.37;3.63;;;18.70;41.40;;;;;;5031480;28;20468;-77
2022/01/16 10:16:31;;;;;;;7.77;3.40;;;18.70;40.10;;;;;;5032040;28;20941;-77
2022/01/16 10:18:56;;;;;;;6.47;4.00;;;18.70;40.00;;;;;;5031467;28;20412;-78
2022/01/16 10:21:37;;;;;;;7.77;4.73;;;18.70;39.80;;;;;;5029626;28;20413;-77
2022/01/16 10:24:27;;;;;;;6.30;3.47;;;18.80;39.80;;;;;;5031294;28;20170;-78
2022/01/16 10:27:08;;;;;;;8.43;3.37;;;18.80;39.70;;;;;;5031256;28;20424;-77
2022/01/16 10:29:47;;;;;;;6.40;3.30;;;18.90;40.10;;;;;;5031491;28;20427;-77
2022/01/16 10:32:22;;;;;;;11.00;3.80;;;18.90;41.90;;;;;;5029646;28;20447;-79
2022/01/16 10:34:53;;;;;;;6.43;3.20;;;19.00;39.80;;;;;;5031062;28;20452;-77
2022/01/16 10:37:18;;;;;;;5.50;3.30;;;19.00;41.10;;;;;;5030848;28;20452;-77
2022/01/16 10:40:01;;;;;;;7.23;3.63;;;19.00;39.50;;;;;;5030791;28;20455;-77
2022/01/16 10:42:29;;;;;;;5.90;3.57;;;19.10;38.60;;;;;;5030437;28;20176;-77
2022/01/16 10:45:06;;;;;;;8.40;4.40;;;19.10;39.60;;;;;;5030733;28;20396;-77
2022/01/16 10:47:40;;;;;;;8.97;4.30;;;19.10;40.20;;;;;;5030978;28;20502;-78
2022/01/16 10:50:12;;;;;;;5.87;3.50;;;19.20;40.10;;;;;;5032376;28;20403;-77
2022/01/16 10:52:46;;;;;;;6.40;3.27;;;19.20;40.00;;;;;;5037379;28;20413;-77
2022/01/16 10:55:12;;;;;;;6.73;3.40;;;19.20;37.90;;;;;;5036194;28;20420;-79
2022/01/16 10:57:37;;;;;;;6.77;3.60;;;19.20;40.50;;;;;;5037623;28;20497;-77
2022/01/16 11:00:10;;;;;;;4.73;2.60;;;19.20;37.80;;;;;;5037424;28;20397;-77
2022/01/16 11:02:37;;;;;;;6.13;3.40;;;19.20;37.40;;;;;;5037307;28;20169;-77
2022/01/16 11:05:22;;;;;;;6.83;3.30;;;19.20;37.60;;;;;;5037679;28;20791;-78
2022/01/16 11:07:57;;;;;;;7.20;4.37;;;19.20;37.70;;;;;;5037327;28;20419;-78
2022/01/16 11:10:26;;;;;;;8.93;3.67;;;19.30;37.30;;;;;;5037353;28;20422;-77
2022/01/16 11:12:54;;;;;;;8.27;3.60;;;19.30;39.20;;;;;;5037035;28;20451;-78
2022/01/16 11:15:19;;;;;;;7.83;4.50;;;19.30;38.60;;;;;;5037318;28;20418;-77
2022/01/16 11:17:46;;;;;;;10.10;4.10;;;19.30;39.00;;;;;;5037363;28;20420;-76
2022/01/16 11:20:13;;;;;;;5.20;3.37;;;19.40;39.90;;;;;;5037087;28;20981;-76
2022/01/16 11:25:31;;;;;;;8.07;4.00;;;19.40;40.20;;;;;;5037817;28;20818;-75
2022/01/16 11:28:03;;;;;;;8.33;4.03;;;19.50;39.30;;;;;;5037191;28;20444;-78
2022/01/16 11:30:30;;;;;;;8.53;4.20;;;19.50;39.40;;;;;;5037602;28;20416;-77
2022/01/16 11:32:57;;;;;;;7.40;3.67;;;19.50;39.40;;;;;;5035441;28;20525;-79
2022/01/16 11:35:24;;;;;;;5.93;3.40;;;19.50;39.10;;;;;;5038618;28;20919;-77
2022/01/16 11:37:51;;;;;;;9.00;4.10;;;19.50;39.10;;;;;;5037481;28;20838;-79
2022/01/16 11:40:28;;;;;;;6.00;3.80;;;19.60;38.40;;;;;;5038798;28;20433;-78
2022/01/16 11:43:10;;;;;;;7.47;4.10;;;19.60;38.00;;;;;;5037486;28;20412;-78
2022/01/16 11:45:54;;;;;;;9.13;4.20;;;19.60;37.90;;;;;;5026591;28;20416;-79
2022/01/16 11:48:36;;;;;;;7.60;4.00;;;19.70;38.20;;;;;;5036436;28;20457;-77
2022/01/16 11:51:27;;;;;;;5.20;3.57;;;19.70;38.40;;;;;;5029538;28;20772;-75
2022/01/16 11:54:15;;;;;;;8.17;3.90;;;19.70;38.00;;;;;;5017725;28;20464;-76
2022/01/16 11:56:41;;;;;;;6.20;2.97;;;19.70;38.10;;;;;;5025709;28;20442;-76
2022/01/16 11:59:45;;;;;;;8.63;3.93;;;19.70;38.50;;;;;;5038888;28;20727;-79
2022/01/16 12:02:12;;;;;;;7.23;4.30;;;19.70;38.10;;;;;;5037010;28;20181;-79
2022/01/16 12:04:43;;;;;;;4.50;2.47;;;19.70;38.20;;;;;;5034808;28;20466;-79
2022/01/16 12:07:19;;;;;;;3.73;2.63;;;19.70;38.60;;;;;;5035901;28;20967;-79
2022/01/16 12:12:16;;;;;;;4.83;3.03;;;19.70;38.20;;;;;;5023759;28;20760;-77
2022/01/16 12:14:49;;;;;;;5.60;3.27;;;19.70;38.40;;;;;;5022354;28;20233;-78
2022/01/16 12:17:46;;;;;;;5.47;3.40;;;19.70;38.90;;;;;;5023226;28;20468;-79
2022/01/16 12:20:15;;;;;;;3.70;3.00;;;19.70;38.40;;;;;;4995351;28;20861;-79
2022/01/16 12:22:59;;;;;;;5.20;3.10;;;19.70;38.60;;;;;;5013066;28;20421;-77
2022/01/16 12:25:30;;;;;;;4.40;3.00;;;19.70;38.80;;;;;;5013613;28;20460;-77
2022/01/16 12:28:08;;;;;;;3.70;2.57;;;19.70;38.60;;;;;;5020318;28;20787;-77
2022/01/16 12:30:42;;;;;;;4.90;2.70;;;19.70;38.50;;;;;;5034219;28;20483;-79
2022/01/16 12:33:09;;;;;;;6.27;3.57;;;19.70;38.60;;;;;;5035772;28;20483;-78
2022/01/16 12:35:41;;;;;;;6.40;3.43;;;19.70;38.40;;;;;;5034350;28;20438;-79
2022/01/16 12:38:12;;;;;;;6.07;3.13;;;19.80;39.00;;;;;;5029437;28;20424;-79
2022/01/16 12:40:43;;;;;;;3.77;3.03;;;19.80;38.70;;;;;;5038468;28;20480;-79
2022/01/16 12:43:12;;;;;;;4.03;3.10;;;19.70;38.70;;;;;;5038862;28;20491;-78
2022/01/16 12:45:42;;;;;;;4.87;3.07;;;19.80;38.40;;;;;;5033550;28;20416;-78
2022/01/16 12:48:08;;;;;;;3.93;2.43;;;19.70;38.60;;;;;;5022133;28;20995;-77
2022/01/16 12:50:35;;;;;;;6.27;3.00;;;19.70;38.60;;;;;;5013210;28;20401;-76
2022/01/16 12:53:00;;;;;;;4.00;2.50;;;19.70;38.80;;;;;;5013535;28;20475;-78
2022/01/16 12:55:27;;;;;;;3.73;2.90;;;19.70;38.00;;;;;;5013682;28;20897;-76
2022/01/16 12:57:53;;;;;;;4.90;3.50;;;19.70;38.60;;;;;;5031973;28;20217;-78
2022/01/16 13:00:19;;;;;;;4.60;2.50;;;19.70;39.70;;;;;;5033653;28;20401;-78
2022/01/16 13:02:52;;;;;;;4.60;3.07;;;19.60;38.00;;;;;;5034878;28;20900;-78
2022/01/16 13:05:21;;;;;;;3.47;2.13;;;19.60;38.10;;;;;;5020011;28;20166;-79
2022/01/16 13:07:47;;;;;;;3.70;2.27;;;19.60;37.80;;;;;;5012878;28;20421;-78
2022/01/16 13:10:13;;;;;;;3.60;2.30;;;19.60;37.80;;;;;;5011999;28;20465;-78
2022/01/16 13:12:38;;;;;;;3.77;2.73;;;19.50;37.80;;;;;;5012682;28;20441;-76
2022/01/16 13:15:04;;;;;;;1.90;1.30;;;19.60;38.50;;;;;;5013043;28;20171;-78
2022/01/16 13:17:34;;;;;;;3.13;1.83;;;19.50;37.50;;;;;;5013787;28;20657;-78
2022/01/16 13:20:02;;;;;;;2.90;1.93;;;19.50;37.40;;;;;;5013295;28;20424;-79
2022/01/16 13:22:30;;;;;;;2.67;1.60;;;19.50;37.30;;;;;;5013572;28;20916;-78
2022/01/16 13:25:05;;;;;;;4.30;2.70;;;19.50;37.50;;;;;;5013897;28;20901;-79
2022/01/16 13:27:34;;;;;;;3.13;1.50;;;19.50;38.40;;;;;;5011524;28;20433;-76
2022/01/16 13:30:11;;;;;;;2.67;1.93;;;19.50;37.80;;;;;;5012136;28;20496;-77
2022/01/16 13:32:38;;;;;;;3.87;1.77;;;19.40;37.20;;;;;;5013040;28;20440;-79
2022/01/16 13:35:18;;;;;;;4.00;1.70;;;19.40;37.60;;;;;;5026495;28;20932;-79
2022/01/16 13:37:45;;;;;;;3.67;2.03;;;19.40;37.10;;;;;;5032507;28;20435;-77